White Mountain Summit Weather observations

Data are for 10 minute period ending at time listed.
 Day   Time   Solar   Ave.   Ave.  Ave.  Vector    Max.    Baro.  
  of    of     Rad.   Air    Rel.  Wind   Wind     Wind   Press.  
Year   Day            Temp.  Hum.  Speed  Dir.     Gust           
2015   (PST)   W/m2    F      %     mph   deg.      mph     mb.   
-------------------------------------------------------------------
  57   21:00    0.0    10   71.8    36    277.3    47.1   999.0 
  57   21:10    0.0     9   69.3    45    276.2    54.1   999.0 
  57   21:20    0.0     9   69.1    49    272.0    56.5   999.0 
  57   21:30    0.0     9   67.3    48    275.5    56.5   999.0 
  57   21:40    0.0     9   66.3    47    274.2    54.1   999.0 
  57   21:50    0.0     9   69.5    48    271.4    51.8   999.0 
  57   22:00    0.0     9   68.1    49    272.3    54.1   999.0 
  57   22:10    0.0    10   68.9    50    266.8    56.5   999.0 
  57   22:20    0.0     9   70.2    48    265.5    56.5   999.0 
  57   22:30    0.0     9   73.3    54    265.0    65.9   999.0 
  57   22:40    0.0     9   79.7    56    264.8    61.2   999.0 
  57   22:50    0.0     9   81.9    55    264.4    63.5   999.0 
  57   23:00    0.0     9   86.8    55    263.2    65.9   999.0 
  57   23:10    0.0    10   87.9    56    260.8    68.2   999.0 
  57   23:20    0.0    10   87.6    53    262.7    65.9   999.0 
  57   23:30    0.0    10   87.3    56    261.0    68.2   999.0 
  57   23:40    0.0    10   87.0    52    262.3    61.2   999.0 
  57   23:50    0.0    10   86.8    49    264.6    58.8   999.0 
  58    0:00    0.0    10   86.8    47    260.3    54.1   999.0 
  58    0:10    0.0    10   86.6    43    260.3    49.4   999.0 
  58    0:20    0.0    10   86.5    41    260.9    47.1   999.0 
  58    0:30    0.0    10   86.5    39    261.6    47.1   999.0 
  58    0:40    0.0    10   86.5    40    261.4    44.7   999.0 
  58    0:50    0.0    10   86.5    38    262.1    44.7   999.0 
  58    1:00    0.0    10   86.5    40    262.5    47.1   999.0 
  58    1:10    0.0    10   86.5    39    261.8    44.7   999.0 
  58    1:20    0.0    11   86.6    38    261.2    44.7   999.0 
  58    1:30    0.0    11   86.6    37    260.6    42.4   999.0 
  58    1:40    0.0    11   86.6    34    264.3    44.7   999.0 
  58    1:50    0.0    11   86.6    34    264.2    42.4   999.0 
  58    2:00    0.0    11   86.6    31    261.6    37.7   999.0 
  58    2:10    0.0    10   86.6    30    265.6    37.7   999.0 
  58    2:20    0.0    10   86.6    32    267.3    40.0   999.0 
  58    2:30    0.0    10   86.5    31    270.2    35.3   999.0 
  58    2:40    0.0    10   86.6    30    271.2    37.7   999.0 
  58    2:50    0.0    10   86.5    27    270.1    35.3   999.0 
  58    3:00    0.0    10   86.5    25    265.9    30.6   999.0 
  58    3:10    0.0    10   86.4    26    273.2    30.6   999.0 
  58    3:20    0.0    10   86.4    25    270.5    28.2   999.0 
  58    3:30    0.0     9   86.3    24    276.3    30.6   999.0 
  58    3:40    0.0     9   86.3    24    274.8    28.2   999.0 
  58    3:50    0.0     9   86.3    22    283.4    25.9   999.0 
  58    4:00    0.0     9   86.2    22    284.1    25.9   999.0 
  58    4:10    0.0     9   86.2    20    273.3    25.9   999.0 
  58    4:20    0.0     9   86.2    21    268.1    25.9   999.0 
  58    4:30    0.0     9   86.2    22    269.5    25.9   999.0 
  58    4:40    0.0     9   86.2    21    280.1    28.2   999.0 
  58    4:50    0.0     9   86.2    20    279.8    25.9   999.0 
  58    5:00    0.0     9   86.1    17    285.8    21.2   999.0 
  58    5:10    0.0     8   86.1    14    286.3    18.8   999.0 
  58    5:20    0.0     8   86.1    14    292.0    16.5   999.0 
  58    5:30    0.0     8   86.1    10    295.1    14.1   999.0 
  58    5:40    0.0     8   86.0    12    294.3    18.8   999.0 
  58    5:50    0.0     8   86.1    14    295.7    18.8   999.0 
  58    6:00    0.0     8   86.0    15    298.8    18.8   999.0 
  58    6:10    0.0     8   86.0    15    293.5    18.8   999.0 
  58    6:20    0.0     8   86.1    14    293.4    16.5   999.0 
  58    6:30    0.0     8   86.0    15    285.2    18.8   999.0 
  58    6:40    0.0     8   86.1    17    274.9    18.8   999.0 
  58    6:50    0.0     8   86.0    16    288.9    18.8   999.0 
  58    7:00    0.0     8   85.9    16    286.0    21.2   999.0 
  58    7:10    0.0     8   86.0    15    307.2    18.8   999.0 
  58    7:20    0.0     8   85.9    16    280.0    18.8   999.0 
  58    7:30    0.0     8   85.9    15    289.2    18.8   999.0 
  58    7:40    0.0     8   86.0    16    279.3    21.2   999.0 
  58    7:50    0.0     8   86.0    15    286.0    21.2   999.0 
  58    8:00    0.0     8   85.9    17    318.3    21.2   999.0 
  58    8:10    0.0     8   85.8    14    282.1    18.8   999.0 
  58    8:20    0.0     8   85.9    14    315.8    18.8   999.0 
  58    8:30    0.0     8   85.9    11    288.9    14.1   999.0 
  58    8:40    0.0     8   85.8    14    247.0    16.5   999.0 
  58    8:50    0.0     8   85.8    14    246.6    16.5   999.0 
  58    9:00    0.0     8   85.8    12    245.6    14.1   999.0 
  58    9:10    0.0     8   85.8    12    245.5    16.5   999.0 
  58    9:20    0.0     8   85.7    12    245.5    16.5   999.0 
  58    9:30    0.0     8   85.8    11    243.1    14.1   999.0 
  58    9:40    0.0     9   85.8    11    238.2    14.1   999.0 
  58    9:50    0.0     9   85.8    11    237.2    14.1   999.0 
  58   10:00    0.0     9   85.9    10    233.8    14.1   999.0 
  58   10:10    0.0     9   85.9     8    302.0    11.8   999.0 
  58   10:20    0.0     9   85.7     8    334.0    11.8   999.0 
  58   10:30    0.0     9   85.8     6    333.0    11.8   999.0 
  58   10:40    0.0     9   86.0     5    330.6     7.1   999.0 
  58   10:50    0.0     9   85.7     5    331.5     7.1   999.0 
  58   11:00    0.0     9   85.8     4     90.1     9.4   999.0 
  58   11:10    0.0     9   85.8     5    264.7     9.4   999.0 
  58   11:20    0.0    10   85.9     5    273.3     9.4   999.0 
  58   11:30    0.0     9   85.8     5    277.5     9.4   999.0 
  58   11:40    0.0    10   86.0     6    270.6     9.4   999.0 
  58   11:50    0.0     9   85.9     6    275.5     9.4   999.0 
  58   12:00    0.0     9   86.0     7    270.9    11.8   999.0 
  58   12:10    0.0     9   85.9     7    268.8    14.1   999.0 
  58   12:20    0.0     9   86.0    15    270.3    21.2   999.0 
  58   12:30    0.0     9   86.2    14    278.1    18.8   999.0 
  58   12:40    0.0     9   86.1    14    276.9    18.8   999.0 
  58   12:50    0.0     9   86.0    17    278.8    23.5   999.0 
  58   13:00    0.0     9   86.3    21    275.5    23.5   999.0 
  58   13:10    0.0     9   86.2    20    274.3    23.5   999.0 
  58   13:20    0.0     9   86.0    20    271.0    23.5   999.0 
  58   13:30    0.0     9   86.0    30    268.7    70.6   999.0 
  58   13:40    0.0     8   85.9    58    259.2    70.6   999.0 
  58   13:50    0.0     8   85.9    58    262.3    70.6   999.0 
  58   14:00    0.0     8   85.9    60    259.7    68.2   999.0 
  58   14:10    0.0     8   86.0    58    259.5    68.2   999.0 
  58   14:20    0.0     8   86.0    57    262.0    65.9   999.0 
  58   14:30    0.0     8   86.0    56    261.2    68.2   999.0 
  58   14:40    0.0     8   86.1    55    262.2    68.2   999.0 
  58   14:50    0.0     8   86.1    54    261.0    65.9   999.0 
  58   15:00    0.0     8   86.0    51    261.6    61.2   999.0 
  58   15:10    0.0     8   86.0    52    263.1    61.2   999.0 
  58   15:20    0.0     8   86.1    50    260.4    61.2   999.0 
  58   15:30    0.0     8   86.0    51    263.2    63.5   999.0 
  58   15:40    0.0     8   85.9    49    259.9    56.5   999.0 
  58   15:50    0.0     7   86.0    49    262.5    56.5   999.0 
  58   16:00    0.0     8   86.0    44    260.7    51.8   999.0 
  58   16:10    0.0     8   86.0    43    261.8    49.4   999.0 
  58   16:20    0.0     8   86.1    42    261.9    47.1   999.0 
  58   16:30    0.0     8   86.2    36    265.4    44.7   999.0 
  58   16:40    0.0     8   86.4    40    261.9    47.1   999.0 
  58   16:50    0.0     8   86.3    39    265.4    56.5   999.0 
  58   17:00    0.0     8   86.3    33    263.4    40.0   999.0 
  58   17:10    0.0     8   86.1    30    269.0    40.0   999.0 
  58   17:20    0.0     8   86.1    25    263.1    33.0   999.0 
  58   17:30    0.0     8   86.1    25    259.0    33.0   999.0 
  58   17:40    0.0     8   86.2    26    260.9    33.0   999.0 
  58   17:50    0.0     8   86.1    22    262.1    28.2   999.0 
  58   18:00    0.0     7   85.9    23    258.7    25.9   999.0 
  58   18:10    0.0     6   85.4    20    263.5    25.9   999.0 
  58   18:20    0.0     6   85.6    20    275.9    25.9   999.0 
  58   18:30    0.0     5   85.4    18    272.4    21.2   999.0 
  58   18:40    0.0     5   85.4    16    284.4    21.2   999.0 
  58   18:50    0.0     5   85.3    15    293.3    16.5   999.0 
  58   19:00    0.0     4   85.3    15    308.8    16.5   999.0 
  58   19:10    0.0     4   85.3    15    303.1    18.8   999.0 
  58   19:20    0.0     4   85.3    16    301.5    18.8   999.0 
  58   19:30    0.0     4   85.2    16    308.6    21.2   999.0 
  58   19:40    0.0     4   85.3    14    307.2    16.5   999.0 
  58   19:50    0.0     4   85.3    13    302.5    16.5   999.0 
  58   20:00    0.0     4   85.1    13    298.4    16.5   999.0 
  58   20:10    0.0     4   85.0    13    311.0    16.5   999.0 
  58   20:20    0.0     4   85.1    11    303.4    14.1   999.0 
  58   20:30    0.0     4   85.1    10    295.4    11.8   999.0 
  58   20:40    0.0     4   84.9    10    295.4    11.8   999.0 
  58   20:50    0.0     3   84.8    10    286.0    14.1   999.0 

Return to White Mountain graphs page.


Western Regional Climate Center,wrcc@dri.edu